Gill, Massachusetts
Current Conditions -  °F | °C
As of 8:52 PM on Thursday 25 Dec 2014 (Local Time) from KORE Reporting Station
Broken Clouds Broken Clouds  
Wind Chill: 37°   Ceiling: 4500
Heat Index: 43°   Visibility: 10mi
Dew Point: 29°   Wind: 12mph
Humidity: 58%   Direction: 290°WNW
Pressure: 29.92"   Gusts: 17mph
Location:  42.6787°N, 72.4874°W
Report Text: KORE 260152Z AUTO 29010G15KT 10SM BKN045 06/M02 A2992 RMK AO2 SLP136 T00611017
Loading
Personal Weather Stations






























Interactive Weather Map New forecast layout! Learn more

10-Day Weather Forecast

Advertisements
Track Severe Weather on mobile